• Join FlightAware (Why Join?)
  • Login
  • US Flag 
12:25PM EST


 

Airport Tracker/Info


-or-


 

Live Flight TrackerFlight Track Log ✈ N8134L ✈ 26-May-2013 ✈ CYYT - LPAZ / SMA

Flight Track Log - Related Links

Times and Time Zones

All times are in EDT time to prevent confusion due to time zone crossing. See the N8134L flight status page for this flight to view local times or setup timezone preferences in your user account.

Time Position Orientation Groundspeed Altitude Reporting Facility
EDT Latitude Longitude Course Direction KTS MPH feet Rate Location/Type
06:53PM 47.5500 -52.6833 146° Southeast 60 69 2,000  Level Gander Center
06:54PM 47.5333 -52.6667 146° Southeast 90 104 2,600 600 Climbing Gander Center
06:55PM 47.5167 -52.6167 116° Southeast 120 138 3,200 600 Climbing Gander Center
06:56PM 47.5000 -52.5667 116° Southeast 110 127 3,900 600 Climbing Gander Center
06:57PM 47.5000 -52.5500 90° East 110 127 4,500 600 Climbing Gander Center
06:58PM 47.4833 -52.5000 116° Southeast 110 127 5,200 600 Climbing Gander Center
06:59PM 47.4833 -52.4500 90° East 110 127 5,700 540 Climbing Gander Center
07:00PM 47.4667 -52.4000 116° Southeast 110 127 6,300 540 Climbing Gander Center
07:01PM 47.4333 -52.3833 161° South 110 127 6,800 480 Climbing Gander Center
07:02PM 47.4167 -52.3333 116° Southeast 120 138 7,300 480 Climbing Gander Center
07:03PM 47.4167 -52.2833 90° East 120 138 7,800 480 Climbing Gander Center
07:04PM 47.4000 -52.2333 116° Southeast 120 138 8,300 420 Climbing Gander Center
07:05PM 47.3833 -52.2000 126° Southeast 120 138 8,700 360 Climbing Gander Center
07:06PM 47.3500 -52.1500 135° Southeast 120 138 9,100 420 Climbing Gander Center
07:07PM 47.3333 -52.1000 116° Southeast 120 138 9,600 420 Climbing Gander Center
07:08PM 47.3167 -52.0500 116° Southeast 120 138 10,000 360 Climbing Gander Center
07:09PM 47.3167 -52.0333 90° East 120 138 10,400 360 Climbing Gander Center
07:10PM 47.2833 -51.9833 134° Southeast 120 138 10,800 360 Climbing Gander Center
07:11PM 47.2667 -51.9333 116° Southeast 120 138 11,200 300 Climbing Gander Center
07:12PM 47.2500 -51.9000 126° Southeast 120 138 11,500 300 Climbing Gander Center
07:13PM 47.2333 -51.8500 116° Southeast 120 138 11,900 300 Climbing Gander Center
07:14PM 47.2167 -51.8000 116° Southeast 120 138 12,200 300 Climbing Gander Center
07:15PM 47.2000 -51.7500 116° Southeast 120 138 12,500 300 Climbing Gander Center
07:16PM 47.1833 -51.7167 126° Southeast 120 138 12,800 240 Climbing Gander Center
07:17PM 47.1667 -51.6833 126° Southeast 120 138 13,000 60 Climbing Gander Center
07:18PM 47.1500 -51.6167 110° East 140 161 13,000  Level Gander Center
07:19PM 47.1167 -51.5667 134° Southeast 150 173 13,000  Level Gander Center
07:20PM 47.1000 -51.5333 126° Southeast 150 173 13,000  Level Gander Center
07:21PM 47.0833 -51.4500 106° East 160 184 13,000  Level Gander Center
07:22PM 47.0500 -51.4167 146° Southeast 160 184 13,000 60 Level Gander Center
07:23PM 47.0333 -51.3667 116° Southeast 150 173 13,200 120 Climbing Gander Center
07:24PM 47.0167 -51.3000 110° East 150 173 13,300  Climbing Gander Center
07:25PM 47.0000 -51.2500 116° Southeast 150 173 13,300  Level Gander Center
07:26PM 46.9667 -51.2000 134° Southeast 150 173 13,300  Level Gander Center
07:27PM 46.9500 -51.1333 110° East 160 184 13,300  Level Gander Center
07:28PM 46.9333 -51.1000 126° Southeast 160 184 13,300  Level Gander Center
07:29PM 46.9000 -51.0500 134° Southeast 160 184 13,300  Level Gander Center
07:30PM 46.8833 -50.9833 110° East 160 184 13,300  Level Gander Center
07:31PM 46.8667 -50.9333 116° Southeast 160 184 13,300  Level Gander Center
07:32PM 46.8667 -50.8500 90° East 180 207 13,300  Level Gander Center
07:33PM 46.9000 -50.7833 54° Northeast 200 230 13,300  Level Gander Center
07:33PM 46.8833 -50.7333 116° Southeast 160 184 13,300  Level Gander Center
07:34PM 46.9000 -50.7333 360° North 170 196 13,300  Level Gander Center
07:35PM 46.9000 -50.6333 90° East 180 207 13,300  Level Gander Center
07:36PM 46.9167 -50.5833 64° Northeast 190 219 13,300  Level Gander Center
07:37PM 46.9167 -50.5000 90° East 180 207 13,300  Level Gander Center
07:38PM 46.9333 -50.4333 70° East 190 219 13,300  Level Gander Center
07:39PM 46.9333 -50.3500 90° East 190 219 13,300  Level Gander Center
07:40PM 46.9500 -50.2833 70° East 180 207 13,300  Level Gander Center
07:41PM 46.9500 -50.2000 90° East 190 219 13,300  Level Gander Center
07:42PM 46.9667 -50.1167 74° East 180 207 13,300  Level Gander Center
07:43PM 46.9833 -50.0500 70° East 180 207 13,300  Level Gander Center
07:44PM 46.9667 -49.9833 110° East 190 219 13,300  Level Gander Center
07:45PM 46.9833 -49.9000 74° East 180 207 13,300  Level Gander Center
07:46PM 46.9500 -49.8500 134° Southeast 160 184 13,300 -180 Level Gander Center
07:47PM 47.0000 -50.0000 111° Southeast 164 189 13,000  Descending ETMS Enhanced Traffic Management System
07:47PM 46.9500 -49.7833 90° East 170 196 13,300 240 Climbing Gander Center
07:48PM 46.9167 -49.7167 111° Southeast 170 196 13,300  Level Gander Center
07:49PM 46.9000 -49.6667 116° Southeast 170 196 13,300  Level Gander Center
07:50PM 46.9000 -49.6000 90° East 170 196 13,300  Level Gander Center
07:51PM 46.8667 -49.5333 126° Southeast 170 196 13,300  Level Gander Center
07:52PM 46.8667 -49.4667 90° East 170 196 13,300  Level Gander Center
07:53PM 46.8500 -49.4167 116° Southeast 170 196 13,300  Level Gander Center
07:54PM 46.8333 -49.3500 110° East 170 196 13,300  Level Gander Center
07:55PM 46.8167 -49.2667 106° East 170 196 13,300  Level Gander Center
07:56PM 46.7833 -49.2000 126° Southeast 170 196 13,300  Level Gander Center
07:57PM 46.7833 -49.1500 90° East 170 196 13,300  Level Gander Center
07:58PM 46.7500 -49.0833 126° Southeast 170 196 13,300  Level Gander Center
07:59PM 46.7333 -49.0167 110° East 170 196 13,300 -60 Level Gander Center
08:01PM 46.7039 -48.9084 112° Southeast  Level FlightAware Approximate
08:08PM 46.5907 -48.4961 112° Southeast  Level FlightAware Approximate
08:09PM 46.5744 -48.4373 112° Southeast  Level FlightAware Approximate
08:10PM 46.5580 -48.3786 112° Southeast  Level FlightAware Approximate
08:11PM 46.5417 -48.3199 112° Southeast  Level FlightAware Approximate
08:12PM 46.5253 -48.2613 112° Southeast  Level FlightAware Approximate
08:13PM 46.5089 -48.2027 112° Southeast  Level FlightAware Approximate
08:14PM 46.4924 -48.1441 112° Southeast  Level FlightAware Approximate
08:15PM 46.4759 -48.0855 112° Southeast  Level FlightAware Approximate
08:16PM 46.4594 -48.0270 112° Southeast  Level FlightAware Approximate
08:17PM 46.4429 -47.9685 112° Southeast  Level FlightAware Approximate
08:18PM 46.4263 -47.9101 112° Southeast  Level FlightAware Approximate
08:19PM 46.4097 -47.8517 112° Southeast  Level FlightAware Approximate
08:20PM 46.3931 -47.7933 112° Southeast  Level FlightAware Approximate
08:21PM 46.3764 -47.7350 112° Southeast  Level FlightAware Approximate
08:22PM 46.3597 -47.6767 113° Southeast  Level FlightAware Approximate
08:23PM 46.3430 -47.6184 113° Southeast  Level FlightAware Approximate
08:24PM 46.3263 -47.5602 113° Southeast  Level FlightAware Approximate
08:25PM 46.3095 -47.5020 113° Southeast  Level FlightAware Approximate
08:26PM 46.2927 -47.4439 113° Southeast  Level FlightAware Approximate
08:27PM 46.2759 -47.3857 113° Southeast  Level FlightAware Approximate
08:28PM 46.2590 -47.3276 113° Southeast  Level FlightAware Approximate
08:29PM 46.2421 -47.2696 113° Southeast  Level FlightAware Approximate
08:30PM 46.2252 -47.2116 113° Southeast  Level FlightAware Approximate
08:31PM 46.2083 -47.1536 113° Southeast  Level FlightAware Approximate
08:32PM 46.1913 -47.0957 113° Southeast  Level FlightAware Approximate
08:33PM 46.1743 -47.0378 113° Southeast  Level FlightAware Approximate
08:34PM 46.1572 -46.9799 113° Southeast  Level FlightAware Approximate
08:35PM 46.1402 -46.9221 113° Southeast  Level FlightAware Approximate
08:36PM 46.1231 -46.8643 113° Southeast  Level FlightAware Approximate
08:37PM 46.1059 -46.8065 113° Southeast  Level FlightAware Approximate
08:38PM 46.0888 -46.7488 113° Southeast  Level FlightAware Approximate
08:39PM 46.0716 -46.6911 113° Southeast  Level FlightAware Approximate
08:40PM 46.0544 -46.6334 113° Southeast  Level FlightAware Approximate
08:41PM 46.0371 -46.5758 113° Southeast  Level FlightAware Approximate
08:42PM 46.0199 -46.5182 113° Southeast  Level FlightAware Approximate
08:43PM 46.0026 -46.4607 113° Southeast  Level FlightAware Approximate
08:44PM 45.9852 -46.4032 113° Southeast  Level FlightAware Approximate
08:45PM 45.9679 -46.3457 113° Southeast  Level FlightAware Approximate
08:46PM 45.9505 -46.2883 114° Southeast  Level FlightAware Approximate
08:47PM 45.9331 -46.2309 114° Southeast  Level FlightAware Approximate
08:48PM 45.9156 -46.1735 114° Southeast  Level FlightAware Approximate
08:49PM 45.8982 -46.1162 114° Southeast  Level FlightAware Approximate
08:50PM 45.8807 -46.0589 114° Southeast  Level FlightAware Approximate
08:51PM 45.8631 -46.0016 114° Southeast  Level FlightAware Approximate
08:52PM 45.8456 -45.9444 114° Southeast  Level FlightAware Approximate
08:53PM 45.8280 -45.8872 114° Southeast  Level FlightAware Approximate
08:54PM 45.8104 -45.8301 114° Southeast  Level FlightAware Approximate
08:55PM 45.7927 -45.7729 114° Southeast  Level FlightAware Approximate
08:56PM 45.7751 -45.7159 114° Southeast  Level FlightAware Approximate
08:57PM 45.7574 -45.6588 114° Southeast  Level FlightAware Approximate
08:58PM 45.7396 -45.6018 114° Southeast  Level FlightAware Approximate
08:59PM 45.7219 -45.5448 114° Southeast  Level FlightAware Approximate
09:00PM 45.7041 -45.4879 114° Southeast  Level FlightAware Approximate
09:01PM 45.6862 -45.4310 114° Southeast  Level FlightAware Approximate
09:02PM 45.6684 -45.3742 114° Southeast  Level FlightAware Approximate
09:03PM 45.6505 -45.3173 114° Southeast  Level FlightAware Approximate
09:04PM 45.6326 -45.2606 114° Southeast  Level FlightAware Approximate
09:05PM 45.6147 -45.2038 114° Southeast  Level FlightAware Approximate
09:06PM 45.5967 -45.1471 114° Southeast  Level FlightAware Approximate
09:07PM 45.5500 -45.0000 112° Southeast 164 189 13,000  Level ETMS Enhanced Traffic Management System
09:07PM 45.5788 -45.0904 114° Southeast  Level FlightAware Approximate
09:08PM 45.5608 -45.0338 114° Southeast  Level FlightAware Approximate
09:09PM 45.5432 -44.9769 113° Southeast  Level FlightAware Approximate
09:10PM 45.5262 -44.9196 113° Southeast  Level FlightAware Approximate
09:11PM 45.5093 -44.8623 113° Southeast  Level FlightAware Approximate
09:12PM 45.4923 -44.8051 113° Southeast  Level FlightAware Approximate
09:13PM 45.4104 -44.5178 113° Southeast 164 189 13,000  Level FlightAware Transoceanic
09:14PM 45.3928 -44.4577 113° Southeast 164 189 13,000  Level FlightAware Transoceanic
09:15PM 45.3752 -44.3976 113° Southeast 164 189 13,000  Level FlightAware Transoceanic
09:16PM 45.3576 -44.3376 113° Southeast 164 189 13,000  Level FlightAware Transoceanic
09:17PM 45.3399 -44.2776 113° Southeast 164 189 13,000  Level FlightAware Transoceanic
09:18PM 45.3222 -44.2176 113° Southeast 164 189 13,000  Level FlightAware Transoceanic
09:19PM 45.3044 -44.1577 113° Southeast 164 189 13,000  Level FlightAware Transoceanic
09:20PM 45.2866 -44.0978 113° Southeast 164 189 13,000  Level FlightAware Transoceanic
09:21PM 45.2688 -44.0379 113° Southeast 164 189 13,000  Level FlightAware Transoceanic
09:22PM 45.2510 -43.9781 113° Southeast 164 189 13,000  Level FlightAware Transoceanic
09:23PM 45.2331 -43.9184 113° Southeast 164 189 13,000  Level FlightAware Transoceanic
09:24PM 45.2152 -43.8586 113° Southeast 164 189 13,000  Level FlightAware Transoceanic
09:25PM 45.1973 -43.7989 113° Southeast 164 189 13,000  Level FlightAware Transoceanic
09:26PM 45.1793 -43.7393 113° Southeast 164 189 13,000  Level FlightAware Transoceanic
09:27PM 45.1613 -43.6796 113° Southeast 164 189 13,000  Level FlightAware Transoceanic
09:28PM 45.1433 -43.6201 113° Southeast 164 189 13,000  Level FlightAware Transoceanic
09:29PM 45.1252 -43.5605 113° Southeast 164 189 13,000  Level FlightAware Transoceanic
09:30PM 45.1071 -43.5010 113° Southeast 164 189 13,000  Level FlightAware Transoceanic
09:31PM 45.0890 -43.4415 113° Southeast 164 189 13,000  Level FlightAware Transoceanic
09:32PM 45.0709 -43.3821 113° Southeast 164 189 13,000  Level FlightAware Transoceanic
09:33PM 45.0527 -43.3227 113° Southeast 164 189 13,000  Level FlightAware Transoceanic
09:34PM 45.0345 -43.2634 113° Southeast 164 189 13,000  Level FlightAware Transoceanic
09:35PM 45.0162 -43.2040 114° Southeast 164 189 13,000  Level FlightAware Transoceanic
09:36PM 44.9980 -43.1447 114° Southeast 164 189 13,000  Level FlightAware Transoceanic
09:37PM 44.9796 -43.0855 114° Southeast 164 189 13,000  Level FlightAware Transoceanic
09:38PM 44.9613 -43.0263 114° Southeast 164 189 13,000  Level FlightAware Transoceanic
09:39PM 44.9430 -42.9671 114° Southeast 164 189 13,000  Level FlightAware Transoceanic
09:40PM 44.9245 -42.9080 114° Southeast 164 189 13,000  Level FlightAware Transoceanic
09:41PM 44.9061 -42.8489 114° Southeast 164 189 13,000  Level FlightAware Transoceanic
09:42PM 44.8877 -42.7898 114° Southeast 164 189 13,000  Level FlightAware Transoceanic
09:43PM 44.8692 -42.7308 114° Southeast 164 189 13,000  Level FlightAware Transoceanic
09:44PM 44.8507 -42.6718 114° Southeast 164 189 13,000  Level FlightAware Transoceanic
09:45PM 44.8321 -42.6129 114° Southeast 164 189 13,000  Level FlightAware Transoceanic
09:46PM 44.8135 -42.5540 114° Southeast 164 189 13,000  Level FlightAware Transoceanic
09:47PM 44.7949 -42.4951 114° Southeast 164 189 13,000  Level FlightAware Transoceanic
09:48PM 44.7763 -42.4363 114° Southeast 164 189 13,000  Level FlightAware Transoceanic
09:49PM 44.7576 -42.3775 114° Southeast 164 189 13,000  Level FlightAware Transoceanic
09:50PM 44.7389 -42.3188 114° Southeast 164 189 13,000  Level FlightAware Transoceanic
09:51PM 44.7202 -42.2601 114° Southeast 164 189 13,000  Level FlightAware Transoceanic
09:52PM 44.7014 -42.2014 114° Southeast 164 189 13,000  Level FlightAware Transoceanic
09:53PM 44.6826 -42.1427 114° Southeast 164 189 13,000  Level FlightAware Transoceanic
09:54PM 44.6638 -42.0841 114° Southeast 164 189 13,000  Level FlightAware Transoceanic
09:55PM 44.6450 -42.0256 114° Southeast 164 189 13,000  Level FlightAware Transoceanic
09:56PM 44.6261 -41.9671 114° Southeast 164 189 13,000  Level FlightAware Transoceanic
09:57PM 44.6072 -41.9086 114° Southeast 164 189 13,000  Level FlightAware Transoceanic
09:58PM 44.5882 -41.8501 114° Southeast 164 189 13,000  Level FlightAware Transoceanic
09:59PM 44.5693 -41.7917 115° Southeast 164 189 13,000  Level FlightAware Transoceanic
10:00PM 44.5503 -41.7333 115° Southeast 164 189 13,000  Level FlightAware Transoceanic
10:01PM 44.5312 -41.6750 115° Southeast 164 189 13,000  Level FlightAware Transoceanic
10:02PM 44.5122 -41.6167 115° Southeast 164 189 13,000  Level FlightAware Transoceanic
10:03PM 44.4931 -41.5585 115° Southeast 164 189 13,000  Level FlightAware Transoceanic
10:04PM 44.4740 -41.5003 115° Southeast 164 189 13,000  Level FlightAware Transoceanic
10:05PM 44.4548 -41.4421 115° Southeast 164 189 13,000  Level FlightAware Transoceanic
10:06PM 44.4356 -41.3839 115° Southeast 164 189 13,000  Level FlightAware Transoceanic
10:07PM 44.4165 -41.3258 115° Southeast 164 189 13,000  Level FlightAware Transoceanic
10:08PM 44.3972 -41.2678 115° Southeast 164 189 13,000  Level FlightAware Transoceanic
10:09PM 44.3779 -41.2097 115° Southeast 164 189 13,000  Level FlightAware Transoceanic
10:10PM 44.3587 -41.1517 115° Southeast 164 189 13,000  Level FlightAware Transoceanic
10:11PM 44.3393 -41.0938 115° Southeast 164 189 13,000  Level FlightAware Transoceanic
10:12PM 44.3200 -41.0359 115° Southeast 164 189 13,000  Level FlightAware Transoceanic
10:13PM 44.3006 -40.9780 115° Southeast 164 189 13,000  Level FlightAware Transoceanic
10:14PM 44.2812 -40.9202 115° Southeast 164 189 13,000  Level FlightAware Transoceanic
10:15PM 44.2617 -40.8624 115° Southeast 164 189 13,000  Level FlightAware Transoceanic
10:16PM 44.2423 -40.8046 115° Southeast 164 189 13,000  Level FlightAware Transoceanic
10:17PM 44.2228 -40.7469 115° Southeast 164 189 13,000  Level FlightAware Transoceanic
10:18PM 44.2033 -40.6892 115° Southeast 164 189 13,000  Level FlightAware Transoceanic
10:19PM 44.1837 -40.6316 115° Southeast 164 189 13,000  Level FlightAware Transoceanic
10:20PM 44.1641 -40.5740 115° Southeast 164 189 13,000  Level FlightAware Transoceanic
10:21PM 44.1445 -40.5164 115° Southeast 164 189 13,000  Level FlightAware Transoceanic
10:22PM 44.1249 -40.4589 115° Southeast 164 189 13,000  Level FlightAware Transoceanic
10:23PM 44.1052 -40.4014 116° Southeast 164 189 13,000  Level FlightAware Transoceanic
10:24PM 44.0855 -40.3439 116° Southeast 164 189 13,000  Level FlightAware Transoceanic
10:25PM 44.0658 -40.2865 116° Southeast 164 189 13,000  Level FlightAware Transoceanic
10:26PM 44.0460 -40.2291 116° Southeast 164 189 13,000  Level FlightAware Transoceanic
10:27PM 44.0262 -40.1718 116° Southeast 164 189 13,000  Level FlightAware Transoceanic
10:28PM 44.0064 -40.1145 116° Southeast 164 189 13,000  Level FlightAware Transoceanic
10:29PM 43.9865 -40.0572 116° Southeast 164 189 13,000  Level FlightAware Transoceanic
10:29PM 43.9667 -40.0000 117° Southeast 177 204 13,000  Level ETMS Enhanced Traffic Management System
10:30PM 43.9676 -40.0027 116° Southeast  Level FlightAware Approximate
10:31PM 43.9487 -39.9482 116° Southeast  Level FlightAware Approximate
10:32PM 43.9491 -39.9513 117° Southeast  Level FlightAware Approximate
10:33PM 43.9296 -39.8972 117° Southeast  Level FlightAware Approximate
10:34PM 43.9100 -39.8432 117° Southeast  Level FlightAware Approximate
10:35PM 43.7441 -39.3879 117° Southeast 177 204 13,000  Level FlightAware Transoceanic
10:36PM 43.7217 -39.3270 117° Southeast 177 204 13,000  Level FlightAware Transoceanic
10:37PM 43.6992 -39.2661 117° Southeast 177 204 13,000  Level FlightAware Transoceanic
10:38PM 43.6768 -39.2052 117° Southeast 177 204 13,000  Level FlightAware Transoceanic
10:39PM 43.6542 -39.1444 117° Southeast 177 204 13,000  Level FlightAware Transoceanic
10:40PM 43.6317 -39.0836 117° Southeast 177 204 13,000  Level FlightAware Transoceanic
10:41PM 43.6091 -39.0229 117° Southeast 177 204 13,000  Level FlightAware Transoceanic
10:42PM 43.5864 -38.9622 117° Southeast 177 204 13,000  Level FlightAware Transoceanic
10:43PM 43.5638 -38.9016 117° Southeast 177 204 13,000  Level FlightAware Transoceanic
10:44PM 43.5411 -38.8410 117° Southeast 177 204 13,000  Level FlightAware Transoceanic
10:45PM 43.5184 -38.7804 117° Southeast 177 204 13,000  Level FlightAware Transoceanic
10:46PM 43.4956 -38.7199 117° Southeast 177 204 13,000  Level FlightAware Transoceanic
10:47PM 43.4729 -38.6595 117° Southeast 177 204 13,000  Level FlightAware Transoceanic
10:48PM 43.4500 -38.5991 118° Southeast 177 204 13,000  Level FlightAware Transoceanic
10:49PM 43.4272 -38.5387 118° Southeast 177 204 13,000  Level FlightAware Transoceanic
10:50PM 43.4043 -38.4784 118° Southeast 177 204 13,000  Level FlightAware Transoceanic
10:51PM 43.3814 -38.4181 118° Southeast 177 204 13,000  Level FlightAware Transoceanic
10:52PM 43.3585 -38.3579 118° Southeast 177 204 13,000  Level FlightAware Transoceanic
10:53PM 43.3355 -38.2977 118° Southeast 177 204 13,000  Level FlightAware Transoceanic
10:54PM 43.3125 -38.2376 118° Southeast 177 204 13,000  Level FlightAware Transoceanic
10:55PM 43.2894 -38.1775 118° Southeast 177 204 13,000  Level FlightAware Transoceanic
10:56PM 43.2664 -38.1175 118° Southeast 177 204 13,000  Level FlightAware Transoceanic
10:57PM 43.2433 -38.0575 118° Southeast 177 204 13,000  Level FlightAware Transoceanic
10:58PM 43.2201 -37.9975 118° Southeast 177 204 13,000  Level FlightAware Transoceanic
10:59PM 43.1970 -37.9376 118° Southeast 177 204 13,000  Level FlightAware Transoceanic
11:00PM 43.1738 -37.8777 118° Southeast 177 204 13,000  Level FlightAware Transoceanic
11:01PM 43.1505 -37.8179 118° Southeast 177 204 13,000  Level FlightAware Transoceanic
11:02PM 43.1273 -37.7581 118° Southeast 177 204 13,000  Level FlightAware Transoceanic
11:03PM 43.1040 -37.6984 118° Southeast 177 204 13,000  Level FlightAware Transoceanic
11:04PM 43.0807 -37.6387 118° Southeast 177 204 13,000  Level FlightAware Transoceanic
11:05PM 43.0573 -37.5791 118° Southeast 177 204 13,000  Level FlightAware Transoceanic
11:06PM 43.0340 -37.5195 118° Southeast 177 204 13,000  Level FlightAware Transoceanic
11:07PM 43.0105 -37.4600 118° Southeast 177 204 13,000  Level FlightAware Transoceanic
11:08PM 42.9871 -37.4005 118° Southeast 177 204 13,000  Level FlightAware Transoceanic
11:09PM 42.9636 -37.3410 118° Southeast 177 204 13,000  Level FlightAware Transoceanic
11:10PM 42.9401 -37.2816 118° Southeast 177 204 13,000  Level FlightAware Transoceanic
11:11PM 42.9166 -37.2223 118° Southeast 177 204 13,000  Level FlightAware Transoceanic
11:12PM 42.8930 -37.1629 118° Southeast 177 204 13,000  Level FlightAware Transoceanic
11:13PM 42.8694 -37.1037 119° Southeast 177 204 13,000  Level FlightAware Transoceanic
11:14PM 42.8458 -37.0444 119° Southeast 177 204 13,000  Level FlightAware Transoceanic
11:15PM 42.8221 -36.9853 119° Southeast 177 204 13,000  Level FlightAware Transoceanic
11:16PM 42.7985 -36.9261 119° Southeast 177 204 13,000  Level FlightAware Transoceanic
11:17PM 42.7747 -36.8671 119° Southeast 177 204 13,000  Level FlightAware Transoceanic
11:18PM 42.7510 -36.8080 119° Southeast 177 204 13,000  Level FlightAware Transoceanic
11:19PM 42.7272 -36.7490 119° Southeast 177 204 13,000  Level FlightAware Transoceanic
11:20PM 42.7034 -36.6900 119° Southeast 177 204 13,000  Level FlightAware Transoceanic
11:21PM 42.6796 -36.6311 119° Southeast 177 204 13,000  Level FlightAware Transoceanic
11:22PM 42.6557 -36.5723 119° Southeast 177 204 13,000  Level FlightAware Transoceanic
11:23PM 42.6318 -36.5135 119° Southeast 177 204 13,000  Level FlightAware Transoceanic
11:24PM 42.6079 -36.4547 119° Southeast 177 204 13,000  Level FlightAware Transoceanic
11:25PM 42.5839 -36.3960 119° Southeast 177 204 13,000  Level FlightAware Transoceanic
11:26PM 42.5599 -36.3373 119° Southeast 177 204 13,000  Level FlightAware Transoceanic
11:27PM 42.5359 -36.2786 119° Southeast 177 204 13,000  Level FlightAware Transoceanic
11:28PM 42.5118 -36.2201 119° Southeast 177 204 13,000  Level FlightAware Transoceanic
11:29PM 42.4878 -36.1615 119° Southeast 177 204 13,000  Level FlightAware Transoceanic
11:30PM 42.4637 -36.1030 119° Southeast 177 204 13,000  Level FlightAware Transoceanic
11:31PM 42.4395 -36.0445 119° Southeast 177 204 13,000  Level FlightAware Transoceanic
11:32PM 42.4154 -35.9861 119° Southeast 177 204 13,000  Level FlightAware Transoceanic
11:33PM 42.3912 -35.9278 119° Southeast 177 204 13,000  Level FlightAware Transoceanic
11:34PM 42.3669 -35.8694 119° Southeast 177 204 13,000  Level FlightAware Transoceanic
11:35PM 42.3427 -35.8112 119° Southeast 177 204 13,000  Level FlightAware Transoceanic
11:36PM 42.3184 -35.7529 119° Southeast 177 204 13,000  Level FlightAware Transoceanic
11:37PM 42.2941 -35.6948 119° Southeast 177 204 13,000  Level FlightAware Transoceanic
11:38PM 42.2697 -35.6366 120° Southeast 177 204 13,000  Level FlightAware Transoceanic
11:39PM 42.2453 -35.5785 120° Southeast 177 204 13,000  Level FlightAware Transoceanic
11:40PM 42.2209 -35.5205 120° Southeast 177 204 13,000  Level FlightAware Transoceanic
11:41PM 42.1965 -35.4624 120° Southeast 177 204 13,000  Level FlightAware Transoceanic
11:42PM 42.1721 -35.4045 120° Southeast 177 204 13,000  Level FlightAware Transoceanic
11:43PM 42.1476 -35.3466 120° Southeast 177 204 13,000  Level FlightAware Transoceanic
11:44PM 42.1230 -35.2887 120° Southeast 177 204 13,000  Level FlightAware Transoceanic
11:45PM 42.0985 -35.2309 120° Southeast 177 204 13,000  Level FlightAware Transoceanic
11:46PM 42.0739 -35.1731 120° Southeast 177 204 13,000  Level FlightAware Transoceanic
11:47PM 42.0493 -35.1153 120° Southeast 177 204 13,000  Level FlightAware Transoceanic
11:48PM 42.0247 -35.0577 120° Southeast 177 204 13,000  Level FlightAware Transoceanic
11:49PM 42.0029 -35.0069 120° Southeast  Level FlightAware Approximate
11:50PM 41.9812 -34.9561 120° Southeast  Level FlightAware Approximate
11:51PM 41.9833 -34.9636 122° Southeast  Level FlightAware Approximate
11:52PM 41.9605 -34.9137 122° Southeast  Level FlightAware Approximate
11:53PM 41.9377 -34.8638 122° Southeast  Level FlightAware Approximate
11:54PM 41.9148 -34.8140 122° Southeast  Level FlightAware Approximate
11:55PM 41.8919 -34.7642 122° Southeast  Level FlightAware Approximate
11:56PM 41.8690 -34.7145 122° Southeast  Level FlightAware Approximate
11:57PM 41.8461 -34.6647 122° Southeast  Level FlightAware Approximate
11:58PM 41.8231 -34.6151 122° Southeast  Level FlightAware Approximate
11:59PM 41.8002 -34.5654 122° Southeast  Level FlightAware Approximate
12:00AM 41.7772 -34.5158 122° Southeast  Level FlightAware Approximate
12:01AM 41.7541 -34.4663 122° Southeast  Level FlightAware Approximate
12:02AM 41.7311 -34.4167 122° Southeast  Level FlightAware Approximate
12:03AM 41.7080 -34.3672 122° Southeast  Level FlightAware Approximate
12:04AM 41.6858 -34.3171 120° Southeast  Level FlightAware Approximate
12:05AM 41.6640 -34.2666 120° Southeast  Level FlightAware Approximate
12:06AM 41.6422 -34.2162 120° Southeast  Level FlightAware Approximate
12:07AM 41.6203 -34.1658 120° Southeast  Level FlightAware Approximate
12:08AM 41.5984 -34.1154 120° Southeast  Level FlightAware Approximate
12:09AM 41.5766 -34.0651 120° Southeast  Level FlightAware Approximate
12:10AM 41.5546 -34.0148 120° Southeast  Level FlightAware Approximate
12:11AM 41.5327 -33.9645 120° Southeast  Level FlightAware Approximate
12:12AM 41.5107 -33.9143 120° Southeast  Level FlightAware Approximate
12:13AM 41.4888 -33.8641 120° Southeast  Level FlightAware Approximate
12:14AM 41.4668 -33.8139 120° Southeast  Level FlightAware Approximate
12:15AM 41.4448 -33.7638 120° Southeast  Level FlightAware Approximate
12:16AM 41.4227 -33.7137 120° Southeast  Level FlightAware Approximate
12:17AM 41.4002 -33.6640 121° Southeast  Level FlightAware Approximate
12:18AM 41.3775 -33.6144 121° Southeast  Level FlightAware Approximate
12:19AM 41.3548 -33.5649 121° Southeast  Level FlightAware Approximate
12:20AM 41.3320 -33.5154 121° Southeast  Level FlightAware Approximate
12:21AM 41.3093 -33.4660 121° Southeast  Level FlightAware Approximate
12:22AM 41.2865 -33.4166 122° Southeast  Level FlightAware Approximate
12:23AM 41.2637 -33.3672 122° Southeast  Level FlightAware Approximate
12:24AM 41.2409 -33.3179 122° Southeast  Level FlightAware Approximate
12:25AM 41.2180 -33.2686 122° Southeast  Level FlightAware Approximate
12:26AM 41.1952 -33.2193 122° Southeast  Level FlightAware Approximate
12:27AM 41.1723 -33.1701 122° Southeast  Level FlightAware Approximate
12:28AM 41.1494 -33.1209 122° Southeast  Level FlightAware Approximate
12:29AM 41.1264 -33.0717 122° Southeast  Level FlightAware Approximate
12:30AM 41.1035 -33.0226 122° Southeast  Level FlightAware Approximate
12:31AM 41.0805 -32.9735 122° Southeast  Level FlightAware Approximate
12:32AM 41.0575 -32.9244 122° Southeast  Level FlightAware Approximate
12:33AM 41.0345 -32.8754 122° Southeast  Level FlightAware Approximate
12:34AM 41.0115 -32.8264 122° Southeast  Level FlightAware Approximate
12:35AM 40.9884 -32.7775 122° Southeast  Level FlightAware Approximate
12:36AM 40.9654 -32.7285 122° Southeast  Level FlightAware Approximate
12:37AM 40.9423 -32.6796 122° Southeast  Level FlightAware Approximate
12:38AM 40.9192 -32.6308 122° Southeast  Level FlightAware Approximate
12:39AM 40.8960 -32.5820 122° Southeast  Level FlightAware Approximate
12:40AM 40.8729 -32.5332 122° Southeast  Level FlightAware Approximate
12:41AM 40.8497 -32.4844 122° Southeast  Level FlightAware Approximate
12:42AM 40.8266 -32.4356 122° Southeast  Level FlightAware Approximate
12:43AM 40.8036 -32.3868 122° Southeast  Level FlightAware Approximate
12:44AM 40.7805 -32.3380 122° Southeast  Level FlightAware Approximate
12:45AM 40.7575 -32.2892 122° Southeast  Level FlightAware Approximate
12:46AM 40.7344 -32.2405 122° Southeast  Level FlightAware Approximate
12:47AM 40.7113 -32.1918 122° Southeast  Level FlightAware Approximate
12:48AM 40.6881 -32.1431 122° Southeast  Level FlightAware Approximate
12:49AM 40.6650 -32.0944 122° Southeast  Level FlightAware Approximate
12:50AM 40.6418 -32.0458 122° Southeast  Level FlightAware Approximate
12:51AM 40.6186 -31.9972 122° Southeast  Level FlightAware Approximate
12:52AM 40.5954 -31.9487 122° Southeast  Level FlightAware Approximate
12:53AM 40.5722 -31.9002 122° Southeast  Level FlightAware Approximate
12:54AM 40.5490 -31.8517 122° Southeast  Level FlightAware Approximate
12:55AM 40.5257 -31.8033 122° Southeast  Level FlightAware Approximate
12:56AM 40.5024 -31.7549 122° Southeast  Level FlightAware Approximate
12:57AM 40.4791 -31.7065 122° Southeast  Level FlightAware Approximate
12:58AM 40.4557 -31.6582 122° Southeast  Level FlightAware Approximate
12:59AM 40.4324 -31.6099 122° Southeast  Level FlightAware Approximate
01:00AM 40.4090 -31.5616 122° Southeast  Level FlightAware Approximate
01:01AM 40.3856 -31.5133 122° Southeast  Level FlightAware Approximate
01:02AM 40.3622 -31.4651 122° Southeast  Level FlightAware Approximate
01:03AM 40.3388 -31.4170 123° Southeast  Level FlightAware Approximate
01:04AM 40.3153 -31.3688 123° Southeast  Level FlightAware Approximate
01:05AM 40.2919 -31.3207 123° Southeast  Level FlightAware Approximate
01:06AM 40.2684 -31.2726 123° Southeast  Level FlightAware Approximate
01:07AM 40.2449 -31.2246 123° Southeast  Level FlightAware Approximate
01:08AM 40.2214 -31.1766 123° Southeast  Level FlightAware Approximate
01:09AM 40.1978 -31.1286 123° Southeast  Level FlightAware Approximate
01:10AM 40.1742 -31.0807 123° Southeast  Level FlightAware Approximate
01:11AM 40.1506 -31.0328 123° Southeast  Level FlightAware Approximate
01:12AM 40.1270 -30.9849 123° Southeast  Level FlightAware Approximate
01:13AM 40.1034 -30.9371 123° Southeast  Level FlightAware Approximate
01:14AM 40.0798 -30.8893 123° Southeast  Level FlightAware Approximate
01:15AM 40.0561 -30.8415 123° Southeast  Level FlightAware Approximate
01:16AM 40.0324 -30.7938 123° Southeast  Level FlightAware Approximate
01:17AM 40.0087 -30.7460 123° Southeast  Level FlightAware Approximate
01:18AM 39.9850 -30.6984 123° Southeast  Level FlightAware Approximate
01:19AM 39.9613 -30.6507 123° Southeast  Level FlightAware Approximate
01:20AM 39.9375 -30.6031 123° Southeast  Level FlightAware Approximate
01:21AM 39.9137 -30.5555 123° Southeast  Level FlightAware Approximate
01:22AM 39.8899 -30.5080 123° Southeast  Level FlightAware Approximate
01:23AM 39.8661 -30.4605 123° Southeast  Level FlightAware Approximate
01:24AM 39.8423 -30.4130 123° Southeast  Level FlightAware Approximate
01:25AM 39.8184 -30.3656 123° Southeast  Level FlightAware Approximate
01:26AM 39.7945 -30.3182 123° Southeast  Level FlightAware Approximate
01:27AM 39.7706 -30.2708 123° Southeast  Level FlightAware Approximate
01:28AM 39.7467 -30.2235 123° Southeast  Level FlightAware Approximate
01:29AM 39.7228 -30.1761 123° Southeast  Level FlightAware Approximate
01:30AM 39.6988 -30.1289 123° Southeast  Level FlightAware Approximate
01:31AM 39.6748 -30.0816 123° Southeast  Level FlightAware Approximate
01:32AM 39.6508 -30.0344 123° Southeast  Level FlightAware Approximate
01:33AM 39.6268 -29.9873 124° Southeast  Level FlightAware Approximate
01:34AM 39.6026 -29.9403 124° Southeast  Level FlightAware Approximate
01:35AM 39.5784 -29.8933 124° Southeast  Level FlightAware Approximate
01:36AM 39.5541 -29.8464 124° Southeast  Level FlightAware Approximate
01:37AM 39.5299 -29.7994 124° Southeast  Level FlightAware Approximate
01:38AM 39.5056 -29.7526 124° Southeast  Level FlightAware Approximate
01:39AM 39.4813 -29.7057 124° Southeast  Level FlightAware Approximate
01:40AM 39.4570 -29.6589 124° Southeast  Level FlightAware Approximate
01:41AM 39.4327 -29.6122 124° Southeast  Level FlightAware Approximate
01:42AM 39.4084 -29.5654 124° Southeast  Level FlightAware Approximate
01:43AM 39.3840 -29.5187 124° Southeast  Level FlightAware Approximate
01:44AM 39.3596 -29.4720 124° Southeast  Level FlightAware Approximate
01:45AM 39.3352 -29.4254 124° Southeast  Level FlightAware Approximate
01:46AM 39.3108 -29.3788 124° Southeast  Level FlightAware Approximate
01:47AM 39.2864 -29.3322 124° Southeast  Level FlightAware Approximate
01:48AM 39.2619 -29.2856 124° Southeast  Level FlightAware Approximate
01:49AM 39.2374 -29.2391 124° Southeast  Level FlightAware Approximate
01:50AM 39.2129 -29.1926 124° Southeast  Level FlightAware Approximate
01:51AM 39.1884 -29.1462 124° Southeast  Level FlightAware Approximate
01:52AM 39.1639 -29.0998 124° Southeast  Level FlightAware Approximate
01:53AM 39.1393 -29.0534 124° Southeast  Level FlightAware Approximate
01:54AM 39.1148 -29.0070 124° Southeast  Level FlightAware Approximate
01:55AM 39.0902 -28.9607 124° Southeast  Level FlightAware Approximate
01:56AM 39.0656 -28.9144 124° Southeast  Level FlightAware Approximate
01:57AM 39.0409 -28.8682 124° Southeast  Level FlightAware Approximate
01:58AM 39.0163 -28.8219 124° Southeast  Level FlightAware Approximate
01:59AM 38.9916 -28.7757 124° Southeast  Level FlightAware Approximate
02:00AM 38.9670 -28.7296 125° Southeast  Level FlightAware Approximate
02:01AM 38.9423 -28.6835 125° Southeast  Level FlightAware Approximate
02:02AM 38.9175 -28.6374 125° Southeast  Level FlightAware Approximate
02:03AM 38.8928 -28.5913 125° Southeast  Level FlightAware Approximate
02:04AM 38.8681 -28.5453 125° Southeast  Level FlightAware Approximate
02:05AM 38.8433 -28.4993 125° Southeast  Level FlightAware Approximate
02:06AM 38.8185 -28.4533 125° Southeast  Level FlightAware Approximate
02:07AM 38.7937 -28.4074 125° Southeast  Level FlightAware Approximate
02:08AM 38.7689 -28.3615 125° Southeast  Level FlightAware Approximate
02:09AM 38.7440 -28.3156 125° Southeast  Level FlightAware Approximate
02:10AM 38.7192 -28.2697 125° Southeast  Level FlightAware Approximate
02:11AM 38.6943 -28.2239 125° Southeast  Level FlightAware Approximate
02:12AM 38.6694 -28.1782 125° Southeast  Level FlightAware Approximate
02:13AM 38.6445 -28.1324 125° Southeast  Level FlightAware Approximate
02:14AM 38.6196 -28.0867 125° Southeast  Level FlightAware Approximate
02:15AM 38.5946 -28.0410 125° Southeast  Level FlightAware Approximate
02:16AM 38.5697 -27.9954 125° Southeast  Level FlightAware Approximate
02:17AM 38.5447 -27.9498 125° Southeast  Level FlightAware Approximate
02:18AM 38.5197 -27.9042 125° Southeast  Level FlightAware Approximate
02:19AM 38.4947 -27.8586 125° Southeast  Level FlightAware Approximate
02:20AM 38.4696 -27.8131 125° Southeast  Level FlightAware Approximate
02:21AM 38.4446 -27.7676 125° Southeast  Level FlightAware Approximate
02:22AM 38.4195 -27.7221 125° Southeast  Level FlightAware Approximate
02:23AM 38.3944 -27.6767 125° Southeast  Level FlightAware Approximate
02:24AM 38.3693 -27.6313 125° Southeast  Level FlightAware Approximate
02:25AM 38.3442 -27.5860 125° Southeast  Level FlightAware Approximate
02:26AM 38.3190 -27.5406 125° Southeast  Level FlightAware Approximate
02:27AM 38.2939 -27.4953 125° Southeast  Level FlightAware Approximate
02:28AM 38.2687 -27.4501 125° Southeast  Level FlightAware Approximate
02:29AM 38.2435 -27.4048 125° Southeast  Level FlightAware Approximate
02:30AM 38.2183 -27.3596 125° Southeast  Level FlightAware Approximate
02:31AM 38.1931 -27.3144 125° Southeast  Level FlightAware Approximate
02:32AM 38.1678 -27.2693 125° Southeast  Level FlightAware Approximate
02:33AM 38.1426 -27.2242 125° Southeast  Level FlightAware Approximate
02:34AM 38.1173 -27.1791 125° Southeast  Level FlightAware Approximate
02:35AM 38.0920 -27.1340 125° Southeast  Level FlightAware Approximate
02:36AM 38.0667 -27.0890 126° Southeast  Level FlightAware Approximate
02:37AM 38.0413 -27.0440 126° Southeast  Level FlightAware Approximate
02:38AM 38.0160 -26.9991 126° Southeast  Level FlightAware Approximate
02:39AM 37.9906 -26.9541 126° Southeast  Level FlightAware Approximate
02:40AM 37.9652 -26.9092 126° Southeast  Level FlightAware Approximate
02:41AM 37.9398 -26.8644 126° Southeast  Level FlightAware Approximate
02:42AM 37.9144 -26.8195 126° Southeast  Level FlightAware Approximate
02:43AM 37.8890 -26.7747 126° Southeast  Level FlightAware Approximate
02:44AM 37.8635 -26.7300 126° Southeast  Level FlightAware Approximate
02:45AM 37.8381 -26.6852 126° Southeast  Level FlightAware Approximate
02:46AM 37.8126 -26.6405 126° Southeast  Level FlightAware Approximate
02:47AM 37.7871 -26.5958 126° Southeast  Level FlightAware Approximate
02:48AM 37.7616 -26.5512 126° Southeast  Level FlightAware Approximate
02:49AM 37.7360 -26.5066 126° Southeast  Level FlightAware Approximate
02:50AM 37.7105 -26.4620 126° Southeast  Level FlightAware Approximate
02:51AM 37.6849 -26.4174 126° Southeast  Level FlightAware Approximate
02:52AM 37.6593 -26.3729 126° Southeast  Level FlightAware Approximate
02:53AM 37.6337 -26.3284 126° Southeast  Level FlightAware Approximate
02:54AM 37.6081 -26.2840 126° Southeast  Level FlightAware Approximate
02:55AM 37.5825 -26.2395 126° Southeast  Level FlightAware Approximate
02:56AM 37.5568 -26.1951 126° Southeast  Level FlightAware Approximate
02:57AM 37.5313 -26.1506 126° Southeast  Level FlightAware Approximate
02:58AM 37.5059 -26.1060 126° Southeast  Level FlightAware Approximate
02:59AM 37.4805 -26.0614 126° Southeast  Level FlightAware Approximate
03:00AM 37.4550 -26.0169 126° Southeast  Level FlightAware Approximate
03:01AM 37.4295 -25.9724 126° Southeast  Level FlightAware Approximate
03:02AM 37.4037 -25.9283 127° Southeast  Level FlightAware Approximate
03:03AM 37.3774 -25.8845 127° Southeast  Level FlightAware Approximate
03:04AM 37.3512 -25.8408 127° Southeast  Level FlightAware Approximate
03:05AM 37.3250 -25.7971 127° Southeast  Level FlightAware Approximate
03:06AM 37.3000 -25.7523 124° Southeast  Level FlightAware Approximate
03:07AM 37.2756 -25.7069 124° Southeast  Level FlightAware Approximate
03:08AM 37.2512 -25.6616 124° Southeast  Level FlightAware Approximate
03:09AM 37.2268 -25.6163 124° Southeast  Level FlightAware Approximate
03:10AM 37.2023 -25.5710 124° Southeast  Level FlightAware Approximate
03:11AM 37.1763 -25.5272 127° Southeast  Level FlightAware Approximate
03:12AM 37.1501 -25.4835 127° Southeast  Level FlightAware Approximate
03:13AM 37.1239 -25.4399 127° Southeast  Level FlightAware Approximate
03:14AM 37.0978 -25.3962 127° Southeast  Level FlightAware Approximate
03:15AM 37.0716 -25.3526 127° Southeast  Level FlightAware Approximate
03:16AM 37.0454 -25.3090 127° Southeast  Level FlightAware Approximate
03:17AM 37.0192 -25.2654 127° Southeast  Level FlightAware Approximate
03:18AM 36.9931 -25.2218 127° Southeast  Level FlightAware Approximate
03:19AM 36.9669 -25.1782 127° Southeast  Level FlightAware Approximate
03:20AM 36.9620 -25.1620 321° Northwest  Level FlightAware Approximate
03:21AM 36.9667 -25.1667 321° Northwest  Level FlightAware Approximate
03:22AM 36.9714 -25.1706 321° Northwest  Level Estimated
03:23AM 36.9667 -25.1667 321° Northwest  Level FlightAware Approximate
03:24AM 36.9714 -25.1706 321° Northwest  Level Estimated
03:25AM 36.9667 -25.1667 321° Northwest  Level FlightAware Approximate
03:26AM 36.9714 -25.1706 321° Northwest  Level Estimated
03:27AM 36.9667 -25.1667 321° Northwest  Level FlightAware Approximate
03:28AM 36.9714 -25.1706 321° Northwest  Level Estimated
03:29AM 36.9667 -25.1667 321° Northwest  Level FlightAware Approximate
03:30AM 36.9714 -25.1706 321° Northwest  Level Estimated
03:31AM 36.9667 -25.1667 321° Northwest  Level FlightAware Approximate
03:32AM 36.9714 -25.1706 321° Northwest  Level Estimated
03:33AM 36.9667 -25.1667 321° Northwest  Level FlightAware Approximate
03:34AM 36.9714 -25.1706 321° Northwest  Level Estimated
03:35AM 36.9667 -25.1667 321° Northwest  Level FlightAware Approximate
03:36AM 36.9714 -25.1706 321° Northwest  Level Estimated
03:37AM 36.9667 -25.1667 321° Northwest  Level FlightAware Approximate
03:38AM 36.9714 -25.1706 321° Northwest  Level Estimated
03:39AM 36.9667 -25.1667 321° Northwest  Level FlightAware Approximate
03:40AM 36.9714 -25.1706 321° Northwest  Level Estimated
03:41AM 36.9667 -25.1667 321° Northwest  Level FlightAware Approximate
03:42AM 36.9714 -25.1706 321° Northwest  Level Estimated
03:43AM 36.9667 -25.1667 321° Northwest  Level FlightAware Approximate
03:44AM 36.9714 -25.1706 321° Northwest  Level Estimated
03:45AM 36.9667 -25.1667 321° Northwest  Level FlightAware Approximate
03:46AM 36.9714 -25.1706 321° Northwest  Level Estimated
03:47AM 36.9667 -25.1667 321° Northwest  Level FlightAware Approximate
03:48AM 36.9714 -25.1706 321° Northwest  Level Estimated
03:49AM 36.9667 -25.1667 321° Northwest  Level FlightAware Approximate
03:50AM 36.9714 -25.1706 321° Northwest  Level Estimated
03:51AM 36.9667 -25.1667 321° Northwest  Level FlightAware Approximate
03:52AM 36.9714 -25.1706 321° Northwest  Level Estimated
03:53AM 36.9667 -25.1667 321° Northwest  Level FlightAware Approximate
03:54AM 36.9714 -25.1706 321° Northwest  Level Estimated
03:55AM 36.9667 -25.1667 321° Northwest  Level FlightAware Approximate
03:56AM 36.9714 -25.1706 321° Northwest  Level Estimated
03:57AM 36.9667 -25.1667 321° Northwest  Level FlightAware Approximate